Time,TemperatureF,DewpointF,PressureIn,WindDirection,WindDirectionDegrees,WindSpeedMPH,WindSpeedGustMPH,Humidity,HourlyPrecipIn,Conditions,Clouds,dailyrainin,SoftwareType,DateUTC
2013-10-10 00:04:00,59.9,55.0,30.23,SE,135,3.1,3.1,84,0.00,,,0.00,meteobridge,2013-10-10 06:04:00,
2013-10-10 00:10:00,60.6,56.1,30.23,South,180,5.4,6.0,85,0.00,,,0.00,meteobridge,2013-10-10 06:10:00,
2013-10-10 00:17:00,61.2,56.3,30.23,South,180,5.4,7.6,84,0.00,,,0.00,meteobridge,2013-10-10 06:17:00,
2013-10-10 00:23:00,61.3,56.5,30.23,West,270,4.5,6.0,84,0.00,,,0.00,meteobridge,2013-10-10 06:23:00,
2013-10-10 00:29:00,61.2,56.7,30.22,SW,225,10.7,10.7,85,0.00,,,0.00,meteobridge,2013-10-10 06:29:00,
2013-10-10 00:35:00,60.8,56.3,30.22,South,180,3.8,5.4,85,0.00,,,0.00,meteobridge,2013-10-10 06:35:00,
2013-10-10 00:42:00,60.4,56.5,30.22,South,180,4.5,4.5,87,0.00,,,0.00,meteobridge,2013-10-10 06:42:00,
2013-10-10 00:48:00,60.1,55.9,30.22,SE,135,3.1,6.9,86,0.00,,,0.00,meteobridge,2013-10-10 06:48:00,
2013-10-10 00:54:00,59.5,55.0,30.23,South,180,3.1,4.5,85,0.00,,,0.00,meteobridge,2013-10-10 06:54:00,
2013-10-10 01:01:00,59.7,55.2,30.22,South,180,1.6,3.1,85,0.00,,,0.00,meteobridge,2013-10-10 07:01:00,
2013-10-10 01:07:00,59.7,55.6,30.22,West,270,0.0,2.2,86,0.00,,,0.00,meteobridge,2013-10-10 07:07:00,
2013-10-10 01:14:00,60.1,55.9,30.22,West,270,0.0,0.0,86,0.00,,,0.00,meteobridge,2013-10-10 07:14:00,
2013-10-10 01:20:00,60.4,56.5,30.22,South,180,0.0,0.0,87,0.00,,,0.00,meteobridge,2013-10-10 07:20:00,
2013-10-10 01:26:00,60.6,56.7,30.22,South,180,0.0,0.0,87,0.00,,,0.00,meteobridge,2013-10-10 07:26:00,
2013-10-10 01:33:00,60.1,56.1,30.21,East,90,0.0,0.0,87,0.00,,,0.00,meteobridge,2013-10-10 07:33:00,
2013-10-10 01:39:00,59.7,55.8,30.22,South,180,0.7,0.7,87,0.00,,,0.00,meteobridge,2013-10-10 07:39:00,
2013-10-10 01:45:00,59.4,55.4,30.21,SE,135,2.2,2.2,87,0.00,,,0.00,meteobridge,2013-10-10 07:45:00,
2013-10-10 01:52:00,59.9,55.9,30.21,South,180,3.1,3.1,87,0.00,,,0.00,meteobridge,2013-10-10 07:52:00,
2013-10-10 01:58:00,59.9,55.9,30.21,SW,225,3.8,5.4,87,0.00,,,0.00,meteobridge,2013-10-10 07:58:00,
2013-10-10 02:04:00,59.9,55.8,30.22,SE,135,3.8,3.8,86,0.00,,,0.00,meteobridge,2013-10-10 08:04:00,
2013-10-10 02:11:00,59.9,55.8,30.22,South,180,1.6,1.6,86,0.00,,,0.00,meteobridge,2013-10-10 08:11:00,
2013-10-10 02:17:00,59.5,55.4,30.21,South,180,0.0,0.0,86,0.00,,,0.00,meteobridge,2013-10-10 08:17:00,
2013-10-10 02:23:00,59.5,55.6,30.22,SE,135,1.6,1.6,87,0.00,,,0.00,meteobridge,2013-10-10 08:23:00,
2013-10-10 02:30:00,59.9,55.9,30.21,East,90,2.2,3.1,87,0.00,,,0.00,meteobridge,2013-10-10 08:30:00,
2013-10-10 02:36:00,59.7,55.8,30.21,East,90,4.5,4.5,87,0.00,,,0.00,meteobridge,2013-10-10 08:36:00,
2013-10-10 02:42:00,59.9,55.9,30.21,SE,135,5.4,6.0,87,0.00,,,0.00,meteobridge,2013-10-10 08:42:00,
2013-10-10 02:49:00,60.3,56.3,30.21,South,180,3.8,4.5,87,0.00,,,0.00,meteobridge,2013-10-10 08:49:00,
2013-10-10 02:55:00,60.6,56.5,30.20,South,180,0.0,1.6,86,0.00,,,0.00,meteobridge,2013-10-10 08:55:00,
2013-10-10 03:01:00,60.1,55.9,30.20,SE,135,0.0,0.0,86,0.00,,,0.00,meteobridge,2013-10-10 09:01:00,
2013-10-10 03:08:00,59.9,55.9,30.20,SE,135,1.6,2.2,87,0.00,,,0.00,meteobridge,2013-10-10 09:08:00,
2013-10-10 03:14:00,59.9,55.9,30.20,South,180,0.0,2.2,87,0.00,,,0.00,meteobridge,2013-10-10 09:14:00,
2013-10-10 03:20:00,59.9,55.9,30.20,SE,135,3.8,5.4,87,0.00,,,0.00,meteobridge,2013-10-10 09:20:00,
2013-10-10 03:27:00,60.1,56.1,30.20,SE,135,3.1,3.8,87,0.00,,,0.00,meteobridge,2013-10-10 09:27:00,
2013-10-10 03:35:00,59.9,55.8,30.20,South,180,0.0,0.0,86,0.00,,,0.00,meteobridge,2013-10-10 09:35:00,
2013-10-10 03:42:00,59.5,55.4,30.20,SE,135,1.6,1.6,86,0.00,,,0.00,meteobridge,2013-10-10 09:42:00,
2013-10-10 03:48:00,59.5,55.4,30.20,East,90,0.0,0.0,86,0.00,,,0.00,meteobridge,2013-10-10 09:48:00,
2013-10-10 03:54:00,59.4,55.2,30.21,SE,135,3.1,3.1,86,0.00,,,0.00,meteobridge,2013-10-10 09:54:00,
2013-10-10 04:01:00,59.7,55.2,30.21,SE,135,5.4,5.4,85,0.00,,,0.00,meteobridge,2013-10-10 10:01:00,
2013-10-10 04:09:00,59.4,54.9,30.21,South,180,2.2,3.8,85,0.00,,,0.00,meteobridge,2013-10-10 10:09:00,
2013-10-10 04:15:00,59.0,54.5,30.21,SE,135,5.4,5.4,85,0.00,,,0.00,meteobridge,2013-10-10 10:15:00,
2013-10-10 04:22:00,59.2,54.7,30.21,South,180,2.2,2.2,85,0.00,,,0.00,meteobridge,2013-10-10 10:22:00,
2013-10-10 04:28:00,59.0,54.5,30.21,SE,135,1.6,3.1,85,0.00,,,0.00,meteobridge,2013-10-10 10:28:00,
2013-10-10 04:34:00,59.0,54.5,30.21,East,90,6.0,6.0,85,0.00,,,0.00,meteobridge,2013-10-10 10:34:00,
2013-10-10 04:41:00,59.0,54.5,30.21,SE,135,7.6,7.6,85,0.00,,,0.00,meteobridge,2013-10-10 10:41:00,
2013-10-10 04:47:00,59.0,54.1,30.21,East,90,3.8,6.0,84,0.00,,,0.00,meteobridge,2013-10-10 10:47:00,
2013-10-10 04:53:00,59.0,54.1,30.21,East,90,5.4,5.4,84,0.00,,,0.00,meteobridge,2013-10-10 10:53:00,
2013-10-10 05:00:00,58.6,54.1,30.21,SE,135,6.0,6.0,85,0.00,,,0.00,meteobridge,2013-10-10 11:00:00,
2013-10-10 05:06:00,57.9,53.8,30.21,South,180,0.7,1.6,86,0.00,,,0.00,meteobridge,2013-10-10 11:06:00,
2013-10-10 05:12:00,58.1,54.0,30.20,SE,135,3.1,4.5,86,0.00,,,0.00,meteobridge,2013-10-10 11:12:00,
2013-10-10 05:19:00,58.5,54.3,30.21,SE,135,3.8,3.8,86,0.00,,,0.00,meteobridge,2013-10-10 11:19:00,
2013-10-10 05:25:00,58.8,54.3,30.21,SE,135,1.6,2.2,85,0.00,,,0.00,meteobridge,2013-10-10 11:25:00,
2013-10-10 05:32:00,57.7,53.2,30.22,SE,135,1.6,1.6,85,0.00,,,0.00,meteobridge,2013-10-10 11:32:00,
2013-10-10 05:38:00,57.9,53.8,30.22,SE,135,5.4,5.4,86,0.00,,,0.00,meteobridge,2013-10-10 11:38:00,
2013-10-10 05:44:00,58.5,54.3,30.22,South,180,2.2,2.2,86,0.00,,,0.00,meteobridge,2013-10-10 11:44:00,
2013-10-10 05:51:00,58.8,54.7,30.22,SE,135,0.7,2.2,86,0.00,,,0.00,meteobridge,2013-10-10 11:51:00,
2013-10-10 05:57:00,59.0,54.5,30.22,South,180,0.0,0.7,85,0.00,,,0.00,meteobridge,2013-10-10 11:57:00,
2013-10-10 06:03:00,59.4,54.9,30.23,South,180,0.0,0.0,85,0.00,,,0.00,meteobridge,2013-10-10 12:03:00,
2013-10-10 06:10:00,59.4,54.9,30.23,South,180,2.2,2.2,85,0.00,,,0.00,meteobridge,2013-10-10 12:10:00,
2013-10-10 06:16:00,60.8,56.7,30.23,SW,225,2.2,6.0,86,0.00,,,0.00,meteobridge,2013-10-10 12:16:00,
2013-10-10 06:22:00,61.3,57.2,30.23,South,180,3.1,4.5,86,0.00,,,0.00,meteobridge,2013-10-10 12:22:00,
2013-10-10 06:29:00,62.2,57.7,30.23,South,180,0.0,2.2,85,0.00,,,0.00,meteobridge,2013-10-10 12:29:00,
2013-10-10 06:35:00,63.1,57.6,30.23,South,180,1.6,2.2,82,0.00,,,0.00,meteobridge,2013-10-10 12:35:00,
2013-10-10 06:41:00,63.9,56.8,30.24,SE,135,4.5,4.5,78,0.00,,,0.00,meteobridge,2013-10-10 12:41:00,
2013-10-10 06:48:00,64.0,56.3,30.24,NW,315,0.0,2.2,76,0.00,,,0.00,meteobridge,2013-10-10 12:48:00,
2013-10-10 06:54:00,66.4,57.9,30.24,East,90,2.2,2.2,74,0.00,,,0.00,meteobridge,2013-10-10 12:54:00,
2013-10-10 07:00:00,66.9,57.9,30.24,SE,135,1.6,2.2,73,0.00,,,0.00,meteobridge,2013-10-10 13:00:00,
2013-10-10 07:07:00,65.1,56.7,30.24,West,270,3.1,3.8,74,0.00,,,0.00,meteobridge,2013-10-10 13:07:00,
2013-10-10 07:13:00,65.7,57.6,30.24,NW,315,1.6,2.2,75,0.00,,,0.00,meteobridge,2013-10-10 13:13:00,
2013-10-10 07:19:00,66.9,57.9,30.25,South,180,0.0,0.0,73,0.00,,,0.00,meteobridge,2013-10-10 13:19:00,
2013-10-10 07:26:00,66.7,57.4,30.25,South,180,3.1,3.1,72,0.00,,,0.00,meteobridge,2013-10-10 13:26:00,
2013-10-10 07:32:00,66.6,57.6,30.25,South,180,1.6,2.2,73,0.00,,,0.00,meteobridge,2013-10-10 13:32:00,
2013-10-10 07:38:00,69.4,59.5,30.25,West,270,0.0,0.0,71,0.00,,,0.00,meteobridge,2013-10-10 13:38:00,
2013-10-10 07:45:00,68.9,58.3,30.26,West,270,1.6,2.2,69,0.00,,,0.00,meteobridge,2013-10-10 13:45:00,
2013-10-10 07:51:00,68.4,57.4,30.26,West,270,1.6,3.1,68,0.00,,,0.00,meteobridge,2013-10-10 13:51:00,
2013-10-10 07:57:00,70.0,57.7,30.26,NW,315,4.5,4.5,65,0.00,,,0.00,meteobridge,2013-10-10 13:57:00,
2013-10-10 08:04:00,70.2,57.0,30.26,West,270,2.2,3.8,63,0.00,,,0.00,meteobridge,2013-10-10 14:04:00,
2013-10-10 08:10:00,71.2,57.0,30.26,West,270,2.2,2.2,61,0.00,,,0.00,meteobridge,2013-10-10 14:10:00,
2013-10-10 08:16:00,70.2,54.7,30.26,North,0,1.6,3.1,58,0.00,,,0.00,meteobridge,2013-10-10 14:16:00,
2013-10-10 08:23:00,71.4,55.4,30.27,East,90,3.1,3.1,57,0.00,,,0.00,meteobridge,2013-10-10 14:23:00,
2013-10-10 08:29:00,73.8,56.7,30.27,NE,45,1.6,2.2,55,0.00,,,0.00,meteobridge,2013-10-10 14:29:00,
2013-10-10 08:35:00,73.2,55.6,30.27,West,270,0.0,0.7,54,0.00,,,0.00,meteobridge,2013-10-10 14:35:00,
2013-10-10 08:42:00,71.1,54.1,30.27,East,90,0.7,4.5,55,0.00,,,0.00,meteobridge,2013-10-10 14:42:00,
2013-10-10 08:48:00,73.2,55.6,30.27,South,180,0.0,2.2,54,0.00,,,0.00,meteobridge,2013-10-10 14:48:00,
2013-10-10 08:57:00,74.3,56.1,30.27,South,180,3.1,3.1,53,0.00,,,0.00,meteobridge,2013-10-10 14:57:00,
2013-10-10 09:03:00,76.5,57.6,30.27,SE,135,2.2,2.2,52,0.00,,,0.00,meteobridge,2013-10-10 15:03:00,
2013-10-10 09:09:00,75.2,55.2,30.27,West,270,3.1,3.1,50,0.00,,,0.00,meteobridge,2013-10-10 15:09:00,
2013-10-10 09:16:00,75.7,56.3,30.27,SW,225,2.2,2.2,51,0.00,,,0.00,meteobridge,2013-10-10 15:16:00,
2013-10-10 09:22:00,78.3,58.6,30.27,SW,225,4.5,4.5,51,0.00,,,0.00,meteobridge,2013-10-10 15:22:00,
2013-10-10 09:28:00,76.3,58.5,30.27,South,180,4.5,6.0,54,0.00,,,0.00,meteobridge,2013-10-10 15:28:00,
2013-10-10 09:35:00,77.2,57.7,30.27,North,0,3.1,3.1,51,0.00,,,0.00,meteobridge,2013-10-10 15:35:00,
2013-10-10 09:41:00,76.1,58.3,30.27,West,270,3.8,7.6,54,0.00,,,0.00,meteobridge,2013-10-10 15:41:00,
2013-10-10 09:47:00,75.6,57.7,30.27,South,180,5.4,8.3,54,0.00,,,0.00,meteobridge,2013-10-10 15:47:00,
2013-10-10 09:54:00,75.7,56.8,30.27,SW,225,6.0,6.9,52,0.00,,,0.00,meteobridge,2013-10-10 15:54:00,
2013-10-10 10:00:00,75.9,58.1,30.27,West,270,2.2,7.6,54,0.00,,,0.00,meteobridge,2013-10-10 16:00:00,
2013-10-10 10:06:00,77.0,58.1,30.26,West,270,0.0,3.8,52,0.00,,,0.00,meteobridge,2013-10-10 16:06:00,
2013-10-10 10:13:00,76.6,56.7,30.26,West,270,2.2,4.5,50,0.00,,,0.00,meteobridge,2013-10-10 16:13:00,
2013-10-10 10:19:00,77.4,56.1,30.26,South,180,2.2,2.2,48,0.00,,,0.00,meteobridge,2013-10-10 16:19:00,
2013-10-10 10:25:00,75.4,57.6,30.26,East,90,7.6,9.2,54,0.00,,,0.00,meteobridge,2013-10-10 16:25:00,
2013-10-10 10:32:00,75.7,58.5,30.24,West,270,5.4,6.9,55,0.00,,,0.00,meteobridge,2013-10-10 16:32:00,
2013-10-10 10:38:00,77.5,57.4,30.24,SE,135,15.2,15.2,50,0.00,,,0.00,meteobridge,2013-10-10 16:38:00,
2013-10-10 10:44:00,75.9,58.6,30.24,SE,135,6.0,6.0,55,0.00,,,0.00,meteobridge,2013-10-10 16:44:00,
2013-10-10 10:51:00,75.6,57.7,30.25,NE,45,6.0,6.9,54,0.00,,,0.00,meteobridge,2013-10-10 16:51:00,
2013-10-10 10:57:00,75.7,59.4,30.24,East,90,3.8,5.4,57,0.00,,,0.00,meteobridge,2013-10-10 16:57:00,
2013-10-10 11:04:00,75.0,59.7,30.24,South,180,6.0,6.0,59,0.00,,,0.00,meteobridge,2013-10-10 17:04:00,
2013-10-10 11:10:00,74.5,59.7,30.24,East,90,4.5,7.6,60,0.00,,,0.00,meteobridge,2013-10-10 17:10:00,
2013-10-10 11:16:00,76.1,61.2,30.23,SE,135,1.6,6.0,60,0.00,,,0.00,meteobridge,2013-10-10 17:16:00,
2013-10-10 11:23:00,75.2,59.0,30.23,NE,45,7.6,9.2,57,0.00,,,0.00,meteobridge,2013-10-10 17:23:00,
2013-10-10 11:29:00,78.6,62.1,30.23,SE,135,6.9,9.2,57,0.00,,,0.00,meteobridge,2013-10-10 17:29:00,
2013-10-10 11:35:00,75.6,60.6,30.23,North,0,1.6,3.8,60,0.00,,,0.00,meteobridge,2013-10-10 17:35:00,
2013-10-10 11:42:00,75.0,61.2,30.23,South,180,0.0,3.1,62,0.00,,,0.00,meteobridge,2013-10-10 17:42:00,
2013-10-10 11:48:00,73.0,59.2,30.23,North,0,3.8,9.2,62,0.00,,,0.00,meteobridge,2013-10-10 17:48:00,
2013-10-10 11:54:00,71.1,59.2,30.22,East,90,5.4,8.3,66,0.00,,,0.00,meteobridge,2013-10-10 17:54:00,
2013-10-10 12:01:00,71.2,59.4,30.22,SE,135,6.9,9.2,66,0.00,,,0.00,meteobridge,2013-10-10 18:01:00,
2013-10-10 12:07:00,73.6,60.3,30.22,SE,135,2.2,5.4,63,0.00,,,0.00,meteobridge,2013-10-10 18:07:00,
2013-10-10 12:13:00,75.2,59.0,30.22,East,90,3.8,14.5,57,0.00,,,0.00,meteobridge,2013-10-10 18:13:00,
2013-10-10 12:20:00,78.3,61.7,30.22,East,90,6.9,6.9,57,0.00,,,0.00,meteobridge,2013-10-10 18:20:00,
2013-10-10 12:26:00,75.9,59.5,30.21,SE,135,6.9,8.3,57,0.00,,,0.00,meteobridge,2013-10-10 18:26:00,
2013-10-10 12:32:00,76.8,61.3,30.21,North,0,2.2,4.5,59,0.00,,,0.00,meteobridge,2013-10-10 18:32:00,
2013-10-10 12:39:00,77.4,61.0,30.21,NE,45,6.9,6.9,57,0.00,,,0.00,meteobridge,2013-10-10 18:39:00,
2013-10-10 12:45:00,74.7,60.3,30.21,East,90,9.8,11.4,61,0.00,,,0.00,meteobridge,2013-10-10 18:45:00,
2013-10-10 12:51:00,73.8,59.5,30.21,East,90,6.0,13.6,61,0.00,,,0.00,meteobridge,2013-10-10 18:51:00,
2013-10-10 12:58:00,76.5,61.5,30.21,SE,135,6.9,6.9,60,0.00,,,0.00,meteobridge,2013-10-10 18:58:00,
2013-10-10 13:04:00,74.8,60.1,30.20,North,0,5.4,6.0,60,0.00,,,0.00,meteobridge,2013-10-10 19:04:00,
2013-10-10 13:10:00,71.1,58.6,30.20,SE,135,13.6,13.6,65,0.00,,,0.00,meteobridge,2013-10-10 19:10:00,
2013-10-10 13:17:00,71.8,60.3,30.20,South,180,6.0,6.9,67,0.00,,,0.00,meteobridge,2013-10-10 19:17:00,
2013-10-10 13:23:00,70.3,58.8,30.19,East,90,7.6,10.7,67,0.00,,,0.00,meteobridge,2013-10-10 19:23:00,
2013-10-10 13:29:00,71.1,60.4,30.19,South,180,5.4,7.6,69,0.00,,,0.00,meteobridge,2013-10-10 19:29:00,
2013-10-10 13:36:00,70.0,60.1,30.19,South,180,6.9,10.7,71,0.00,,,0.00,meteobridge,2013-10-10 19:36:00,
2013-10-10 13:42:00,71.1,59.9,30.19,SW,225,2.2,3.1,68,0.00,,,0.00,meteobridge,2013-10-10 19:42:00,
2013-10-10 13:48:00,72.0,60.4,30.19,West,270,0.0,0.0,67,0.00,,,0.00,meteobridge,2013-10-10 19:48:00,
2013-10-10 13:55:00,71.1,59.9,30.19,West,270,2.2,2.2,68,0.00,,,0.00,meteobridge,2013-10-10 19:55:00,
2013-10-10 14:01:00,71.2,61.0,30.19,West,270,1.6,1.6,70,0.00,,,0.00,meteobridge,2013-10-10 20:01:00,
2013-10-10 14:07:00,70.7,60.8,30.19,West,270,8.3,8.3,71,0.00,,,0.00,meteobridge,2013-10-10 20:07:00,
2013-10-10 14:14:00,70.3,60.4,30.19,NW,315,2.2,8.3,71,0.00,,,0.00,meteobridge,2013-10-10 20:14:00,
2013-10-10 14:20:00,70.2,60.3,30.19,NW,315,8.3,8.3,71,0.00,,,0.00,meteobridge,2013-10-10 20:20:00,
2013-10-10 14:27:00,70.0,60.1,30.18,North,0,7.6,7.6,71,0.00,,,0.00,meteobridge,2013-10-10 20:27:00,
2013-10-10 14:31:00,69.1,60.1,30.18,East,90,4.5,8.3,73,0.00,,,0.00,meteobridge,2013-10-10 20:31:00,
2013-10-10 14:37:00,67.5,60.1,30.18,South,180,2.2,6.9,77,0.00,,,0.00,meteobridge,2013-10-10 20:37:00,
2013-10-10 14:43:00,66.4,59.7,30.18,SE,135,6.0,8.3,79,0.00,,,0.00,meteobridge,2013-10-10 20:43:00,
2013-10-10 14:50:00,66.9,59.5,30.19,South,180,6.9,7.6,77,0.00,,,0.00,meteobridge,2013-10-10 20:50:00,
2013-10-10 14:56:00,66.6,60.3,30.19,SE,135,2.2,4.5,80,0.00,,,0.00,meteobridge,2013-10-10 20:56:00,
2013-10-10 15:02:00,66.6,59.9,30.19,East,90,0.7,3.1,79,0.00,,,0.00,meteobridge,2013-10-10 21:02:00,
2013-10-10 15:09:00,66.2,59.9,30.19,South,180,3.8,3.8,80,0.00,,,0.00,meteobridge,2013-10-10 21:09:00,
2013-10-10 15:15:00,66.2,59.9,30.19,South,180,4.5,4.5,80,0.00,,,0.00,meteobridge,2013-10-10 21:15:00,
2013-10-10 15:21:00,66.6,59.9,30.19,East,90,11.4,11.4,79,0.00,,,0.00,meteobridge,2013-10-10 21:21:00,
2013-10-10 15:28:00,65.5,58.5,30.19,SE,135,4.5,6.9,78,0.00,,,0.00,meteobridge,2013-10-10 21:28:00,
2013-10-10 15:34:00,65.8,58.8,30.19,SE,135,4.5,7.6,78,0.00,,,0.00,meteobridge,2013-10-10 21:34:00,
2013-10-10 15:41:00,65.8,59.2,30.19,SE,135,3.8,4.5,79,0.00,,,0.00,meteobridge,2013-10-10 21:41:00,
2013-10-10 15:47:00,66.2,59.2,30.19,SE,135,3.8,3.8,78,0.00,,,0.00,meteobridge,2013-10-10 21:47:00,
2013-10-10 15:53:00,66.9,59.9,30.20,South,180,0.0,0.0,78,0.00,,,0.00,meteobridge,2013-10-10 21:53:00,
2013-10-10 16:00:00,67.3,59.5,30.20,NW,315,2.2,2.2,76,0.00,,,0.00,meteobridge,2013-10-10 22:00:00,
2013-10-10 16:06:00,67.5,60.1,30.21,West,270,0.0,4.5,77,0.00,,,0.00,meteobridge,2013-10-10 22:06:00,
2013-10-10 16:12:00,67.6,60.6,30.21,SW,225,1.6,4.5,78,0.00,,,0.00,meteobridge,2013-10-10 22:12:00,
2013-10-10 16:19:00,67.3,60.6,30.21,South,180,2.2,3.8,79,0.00,,,0.00,meteobridge,2013-10-10 22:19:00,
2013-10-10 16:25:00,67.5,60.8,30.21,SW,225,4.5,4.5,79,0.00,,,0.00,meteobridge,2013-10-10 22:25:00,
2013-10-10 16:31:00,67.1,60.8,30.21,SE,135,2.2,3.8,80,0.00,,,0.00,meteobridge,2013-10-10 22:31:00,
2013-10-10 16:38:00,67.3,60.6,30.20,South,180,1.6,2.2,79,0.00,,,0.00,meteobridge,2013-10-10 22:38:00,
2013-10-10 16:44:00,67.1,61.2,30.20,SW,225,2.2,6.0,81,0.00,,,0.00,meteobridge,2013-10-10 22:44:00,
2013-10-10 16:50:00,66.7,60.8,30.20,SW,225,9.2,9.2,81,0.00,,,0.00,meteobridge,2013-10-10 22:50:00,
2013-10-10 16:57:00,66.7,61.0,30.20,SW,225,3.1,4.5,82,0.00,,,0.00,meteobridge,2013-10-10 22:57:00,
2013-10-10 17:03:00,66.4,61.0,30.20,South,180,2.2,3.1,83,0.00,,,0.00,meteobridge,2013-10-10 23:03:00,
2013-10-10 17:09:00,66.4,61.0,30.20,West,270,3.1,3.8,83,0.00,,,0.00,meteobridge,2013-10-10 23:09:00,
2013-10-10 17:16:00,66.2,60.8,30.20,West,270,2.2,6.0,83,0.00,,,0.00,meteobridge,2013-10-10 23:16:00,
2013-10-10 17:22:00,66.0,61.3,30.20,SW,225,6.0,6.0,85,0.00,,,0.00,meteobridge,2013-10-10 23:22:00,
2013-10-10 17:28:00,66.0,61.3,30.21,West,270,6.0,8.3,85,0.00,,,0.00,meteobridge,2013-10-10 23:28:00,
2013-10-10 17:35:00,66.0,61.3,30.21,South,180,3.1,3.8,85,0.00,,,0.00,meteobridge,2013-10-10 23:35:00,
2013-10-10 17:41:00,66.2,61.2,30.22,SE,135,2.2,4.5,84,0.00,,,0.00,meteobridge,2013-10-10 23:41:00,
2013-10-10 17:47:00,66.0,61.3,30.22,South,180,3.1,3.1,85,0.00,,,0.00,meteobridge,2013-10-10 23:47:00,
2013-10-10 17:57:00,66.0,61.3,30.22,SE,135,0.7,2.2,85,0.00,,,0.00,meteobridge,2013-10-10 23:57:00,
2013-10-10 18:03:00,66.2,61.2,30.22,West,270,0.0,0.0,84,0.00,,,0.00,meteobridge,2013-10-11 00:03:00,
2013-10-10 18:09:00,66.0,61.0,30.22,South,180,0.0,0.0,84,0.00,,,0.00,meteobridge,2013-10-11 00:09:00,
2013-10-10 18:16:00,65.8,61.2,30.23,West,270,0.0,0.0,85,0.00,,,0.00,meteobridge,2013-10-11 00:16:00,
2013-10-10 18:22:00,65.3,60.6,30.23,East,90,2.2,2.2,85,0.00,,,0.00,meteobridge,2013-10-11 00:22:00,
2013-10-10 18:28:00,64.9,60.6,30.23,South,180,0.0,0.0,86,0.00,,,0.00,meteobridge,2013-10-11 00:28:00,
2013-10-10 18:35:00,64.9,60.6,30.23,South,180,0.0,0.0,86,0.00,,,0.00,meteobridge,2013-10-11 00:35:00,
2013-10-10 18:41:00,64.8,60.4,30.23,East,90,0.0,0.0,86,0.00,,,0.00,meteobridge,2013-10-11 00:41:00,
2013-10-10 18:47:00,64.6,60.3,30.23,South,180,0.0,0.0,86,0.00,,,0.00,meteobridge,2013-10-11 00:47:00,
2013-10-10 18:54:00,64.6,60.3,30.23,South,180,0.0,0.0,86,0.00,,,0.00,meteobridge,2013-10-11 00:54:00,
2013-10-10 19:00:00,64.6,60.3,30.24,South,180,0.0,0.0,86,0.00,,,0.00,meteobridge,2013-10-11 01:00:00,
2013-10-10 19:06:00,64.6,60.3,30.24,South,180,0.7,1.6,86,0.00,,,0.00,meteobridge,2013-10-11 01:06:00,
2013-10-10 19:13:00,64.4,60.1,30.24,SE,135,0.0,3.8,86,0.00,,,0.00,meteobridge,2013-10-11 01:13:00,
2013-10-10 19:19:00,64.6,59.9,30.24,SE,135,0.0,1.6,85,0.00,,,0.00,meteobridge,2013-10-11 01:19:00,
2013-10-10 19:26:00,64.4,59.7,30.25,SW,225,0.0,0.0,85,0.00,,,0.00,meteobridge,2013-10-11 01:26:00,
2013-10-10 19:32:00,64.9,60.6,30.24,South,180,3.8,3.8,86,0.00,,,0.00,meteobridge,2013-10-11 01:32:00,
2013-10-10 19:38:00,64.9,60.6,30.25,SW,225,3.1,3.1,86,0.00,,,0.00,meteobridge,2013-10-11 01:38:00,
2013-10-10 19:45:00,65.1,61.2,30.24,West,270,3.8,3.8,87,0.00,,,0.00,meteobridge,2013-10-11 01:45:00,
2013-10-10 19:52:00,65.1,61.2,30.24,West,270,0.0,0.0,87,0.00,,,0.00,meteobridge,2013-10-11 01:52:00,
2013-10-10 19:58:00,64.8,60.4,30.24,SE,135,1.6,1.6,86,0.00,,,0.00,meteobridge,2013-10-11 01:58:00,
2013-10-10 20:04:00,64.2,59.5,30.24,SW,225,4.5,4.5,85,0.00,,,0.00,meteobridge,2013-10-11 02:04:00,
2013-10-10 20:11:00,63.9,59.2,30.24,SE,135,3.1,3.1,85,0.00,,,0.00,meteobridge,2013-10-11 02:11:00,
2013-10-10 20:17:00,64.4,60.4,30.23,SW,225,3.1,3.1,87,0.00,,,0.00,meteobridge,2013-10-11 02:17:00,
2013-10-10 20:23:00,64.2,59.5,30.24,South,180,3.1,4.5,85,0.00,,,0.00,meteobridge,2013-10-11 02:23:00,
2013-10-10 20:30:00,64.6,60.3,30.24,South,180,3.1,3.1,86,0.00,,,0.00,meteobridge,2013-10-11 02:30:00,
2013-10-10 20:36:00,64.8,60.4,30.24,SE,135,6.0,6.0,86,0.00,,,0.00,meteobridge,2013-10-11 02:36:00,
2013-10-10 20:42:00,65.5,60.3,30.24,South,180,4.5,4.5,83,0.00,,,0.00,meteobridge,2013-10-11 02:42:00,
2013-10-10 20:49:00,64.2,58.6,30.24,South,180,0.7,2.2,82,0.00,,,0.00,meteobridge,2013-10-11 02:49:00,
2013-10-10 20:57:00,64.0,58.5,30.24,North,0,0.0,0.0,82,0.00,,,0.00,meteobridge,2013-10-11 02:57:00,
2013-10-10 21:03:00,64.2,59.0,30.24,East,90,0.0,1.6,83,0.00,,,0.00,meteobridge,2013-10-11 03:03:00,
2013-10-10 21:10:00,63.9,58.6,30.25,South,180,0.0,1.6,83,0.00,,,0.00,meteobridge,2013-10-11 03:10:00,
2013-10-10 21:16:00,63.5,58.3,30.25,South,180,0.0,0.0,83,0.00,,,0.00,meteobridge,2013-10-11 03:16:00,
2013-10-10 21:22:00,63.3,58.5,30.25,South,180,0.0,0.0,84,0.00,,,0.00,meteobridge,2013-10-11 03:22:00,
2013-10-10 21:29:00,63.9,59.2,30.25,SW,225,4.5,4.5,85,0.00,,,0.00,meteobridge,2013-10-11 03:29:00,
2013-10-10 21:35:00,64.6,60.3,30.25,West,270,3.8,3.8,86,0.00,,,0.00,meteobridge,2013-10-11 03:35:00,
2013-10-10 21:42:00,64.6,60.3,30.25,SW,225,4.5,6.0,86,0.00,,,0.00,meteobridge,2013-10-11 03:42:00,
2013-10-10 21:48:00,64.6,60.3,30.25,West,270,0.0,3.8,86,0.00,,,0.00,meteobridge,2013-10-11 03:48:00,
2013-10-10 21:54:00,64.6,60.3,30.25,South,180,1.6,2.2,86,0.00,,,0.00,meteobridge,2013-10-11 03:54:00,
2013-10-10 22:03:00,63.5,58.6,30.25,East,90,3.1,3.1,84,0.00,,,0.00,meteobridge,2013-10-11 04:03:00,
2013-10-10 22:07:00,63.0,58.1,30.25,NE,45,3.8,4.5,84,0.00,,,0.00,meteobridge,2013-10-11 04:07:00,
2013-10-10 22:11:00,62.6,57.7,30.25,SE,135,3.1,3.8,84,0.00,,,0.00,meteobridge,2013-10-11 04:11:00,
2013-10-10 22:13:00,62.6,57.7,30.25,SE,135,3.8,3.8,84,0.00,,,0.00,meteobridge,2013-10-11 04:13:00,
2013-10-10 22:20:00,62.6,57.4,30.25,East,90,3.1,4.5,83,0.00,,,0.00,meteobridge,2013-10-11 04:20:00,
2013-10-10 22:22:00,62.6,57.4,30.24,SE,135,3.1,5.4,83,0.00,,,0.00,meteobridge,2013-10-11 04:22:00,
2013-10-10 22:28:00,62.4,57.2,30.25,SE,135,6.9,6.9,83,0.00,,,0.00,meteobridge,2013-10-11 04:28:00,
2013-10-10 22:34:00,62.2,57.4,30.24,South,180,0.0,2.2,84,0.00,,,0.00,meteobridge,2013-10-11 04:34:00,
2013-10-10 22:41:00,61.9,57.0,30.24,SE,135,3.8,3.8,84,0.00,,,0.00,meteobridge,2013-10-11 04:41:00,
2013-10-10 22:47:00,62.6,57.7,30.24,South,180,0.0,2.2,84,0.00,,,0.00,meteobridge,2013-10-11 04:47:00,
2013-10-10 22:53:00,62.4,57.9,30.24,SE,135,5.4,6.0,85,0.00,,,0.00,meteobridge,2013-10-11 04:53:00,
2013-10-10 23:00:00,62.8,57.6,30.24,SE,135,2.2,2.2,83,0.00,,,0.00,meteobridge,2013-10-11 05:00:00,
2013-10-10 23:06:00,61.9,57.0,30.24,SE,135,1.6,2.2,84,0.00,,,0.00,meteobridge,2013-10-11 05:06:00,
2013-10-10 23:15:00,62.6,58.1,30.24,SE,135,0.0,0.0,85,0.00,,,0.00,meteobridge,2013-10-11 05:15:00,
2013-10-10 23:21:00,62.2,57.7,30.24,East,90,2.2,3.1,85,0.00,,,0.00,meteobridge,2013-10-11 05:21:00,
2013-10-10 23:27:00,62.2,57.7,30.23,East,90,2.2,3.8,85,0.00,,,0.00,meteobridge,2013-10-11 05:27:00,
2013-10-10 23:34:00,62.1,57.6,30.23,East,90,4.5,4.5,85,0.00,,,0.00,meteobridge,2013-10-11 05:34:00,